sensor_id;sensor_type;location;lat;lon;timestamp;P1;durP1;ratioP1;P2;durP2;ratioP2
54683;SDS011;40582;53.100;6.686;2022-10-13T00:00:51;28.25;;;12.80;;
54683;SDS011;40582;53.100;6.686;2022-10-13T00:03:17;31.40;;;13.35;;
54683;SDS011;40582;53.100;6.686;2022-10-13T00:05:44;35.00;;;13.30;;
54683;SDS011;40582;53.100;6.686;2022-10-13T00:08:12;29.88;;;13.80;;
54683;SDS011;40582;53.100;6.686;2022-10-13T00:10:39;28.23;;;12.82;;
54683;SDS011;40582;53.100;6.686;2022-10-13T00:13:05;31.10;;;13.30;;
54683;SDS011;40582;53.100;6.686;2022-10-13T00:15:36;34.60;;;12.50;;
54683;SDS011;40582;53.100;6.686;2022-10-13T00:18:06;37.25;;;12.93;;
54683;SDS011;40582;53.100;6.686;2022-10-13T00:20:32;27.95;;;12.73;;
54683;SDS011;40582;53.100;6.686;2022-10-13T00:22:58;39.45;;;13.30;;
54683;SDS011;40582;53.100;6.686;2022-10-13T00:25:24;41.33;;;13.93;;
54683;SDS011;40582;53.100;6.686;2022-10-13T00:27:50;27.15;;;13.57;;
54683;SDS011;40582;53.100;6.686;2022-10-13T00:30:15;23.83;;;13.02;;
54683;SDS011;40582;53.100;6.686;2022-10-13T00:32:41;28.67;;;13.30;;
54683;SDS011;40582;53.100;6.686;2022-10-13T00:35:08;25.77;;;12.98;;
54683;SDS011;40582;53.100;6.686;2022-10-13T00:37:34;30.40;;;14.75;;
54683;SDS011;40582;53.100;6.686;2022-10-13T00:40:00;30.60;;;14.90;;
54683;SDS011;40582;53.100;6.686;2022-10-13T00:42:25;27.27;;;13.93;;
54683;SDS011;40582;53.100;6.686;2022-10-13T00:47:36;35.35;;;14.55;;
54683;SDS011;40582;53.100;6.686;2022-10-13T00:50:06;29.90;;;13.00;;
54683;SDS011;40582;53.100;6.686;2022-10-13T00:52:35;36.65;;;14.88;;
54683;SDS011;40582;53.100;6.686;2022-10-13T00:55:03;26.08;;;13.52;;
54683;SDS011;40582;53.100;6.686;2022-10-13T00:57:31;37.78;;;14.20;;
54683;SDS011;40582;53.100;6.686;2022-10-13T00:59:57;28.77;;;13.77;;
54683;SDS011;40582;53.100;6.686;2022-10-13T01:02:26;35.25;;;13.85;;
54683;SDS011;40582;53.100;6.686;2022-10-13T01:04:56;28.75;;;14.50;;
54683;SDS011;40582;53.100;6.686;2022-10-13T01:07:23;28.42;;;14.10;;
54683;SDS011;40582;53.100;6.686;2022-10-13T01:09:49;27.52;;;14.23;;
54683;SDS011;40582;53.100;6.686;2022-10-13T01:12:27;28.85;;;13.88;;
54683;SDS011;40582;53.100;6.686;2022-10-13T01:15:30;26.60;;;14.10;;
54683;SDS011;40582;53.100;6.686;2022-10-13T01:18:20;33.83;;;15.00;;
54683;SDS011;40582;53.100;6.686;2022-10-13T01:21:17;33.33;;;14.85;;
54683;SDS011;40582;53.100;6.686;2022-10-13T01:29:21;37.22;;;15.30;;
54683;SDS011;40582;53.100;6.686;2022-10-13T01:32:59;32.72;;;14.25;;
54683;SDS011;40582;53.100;6.686;2022-10-13T01:37:43;35.70;;;15.73;;
54683;SDS011;40582;53.100;6.686;2022-10-13T01:40:27;32.58;;;14.00;;
54683;SDS011;40582;53.100;6.686;2022-10-13T01:43:03;33.20;;;15.02;;
54683;SDS011;40582;53.100;6.686;2022-10-13T01:45:37;30.80;;;14.13;;
54683;SDS011;40582;53.100;6.686;2022-10-13T01:48:14;31.85;;;14.82;;
54683;SDS011;40582;53.100;6.686;2022-10-13T01:50:41;28.75;;;14.68;;
54683;SDS011;40582;53.100;6.686;2022-10-13T01:53:08;27.02;;;13.98;;
54683;SDS011;40582;53.100;6.686;2022-10-13T01:55:36;33.22;;;14.75;;
54683;SDS011;40582;53.100;6.686;2022-10-13T01:58:12;30.20;;;14.40;;
54683;SDS011;40582;53.100;6.686;2022-10-13T02:00:38;27.23;;;14.35;;
54683;SDS011;40582;53.100;6.686;2022-10-13T02:03:20;29.98;;;15.52;;
54683;SDS011;40582;53.100;6.686;2022-10-13T02:05:56;31.88;;;15.23;;
54683;SDS011;40582;53.100;6.686;2022-10-13T02:11:15;35.40;;;14.85;;
54683;SDS011;40582;53.100;6.686;2022-10-13T02:13:51;31.48;;;15.73;;
54683;SDS011;40582;53.100;6.686;2022-10-13T02:16:18;35.85;;;16.23;;
54683;SDS011;40582;53.100;6.686;2022-10-13T02:18:47;35.33;;;16.00;;
54683;SDS011;40582;53.100;6.686;2022-10-13T02:21:14;28.30;;;16.10;;
54683;SDS011;40582;53.100;6.686;2022-10-13T02:23:41;28.65;;;16.60;;
54683;SDS011;40582;53.100;6.686;2022-10-13T02:26:07;34.33;;;15.50;;
54683;SDS011;40582;53.100;6.686;2022-10-13T02:28:35;31.27;;;15.10;;
54683;SDS011;40582;53.100;6.686;2022-10-13T02:31:02;36.13;;;14.88;;
54683;SDS011;40582;53.100;6.686;2022-10-13T02:33:28;32.55;;;15.90;;
54683;SDS011;40582;53.100;6.686;2022-10-13T02:35:54;29.90;;;14.82;;
54683;SDS011;40582;53.100;6.686;2022-10-13T02:38:19;29.73;;;14.63;;
54683;SDS011;40582;53.100;6.686;2022-10-13T02:40:45;31.67;;;15.70;;
54683;SDS011;40582;53.100;6.686;2022-10-13T02:43:10;27.98;;;14.50;;
54683;SDS011;40582;53.100;6.686;2022-10-13T02:45:36;29.58;;;14.85;;
54683;SDS011;40582;53.100;6.686;2022-10-13T02:48:02;32.65;;;15.10;;
54683;SDS011;40582;53.100;6.686;2022-10-13T02:50:28;27.10;;;15.10;;
54683;SDS011;40582;53.100;6.686;2022-10-13T02:52:53;30.30;;;14.88;;
54683;SDS011;40582;53.100;6.686;2022-10-13T02:55:19;24.45;;;15.15;;
54683;SDS011;40582;53.100;6.686;2022-10-13T02:57:45;27.52;;;14.90;;
54683;SDS011;40582;53.100;6.686;2022-10-13T03:00:11;29.52;;;15.98;;
54683;SDS011;40582;53.100;6.686;2022-10-13T03:02:37;30.60;;;15.82;;
54683;SDS011;40582;53.100;6.686;2022-10-13T03:05:03;30.80;;;15.00;;
54683;SDS011;40582;53.100;6.686;2022-10-13T03:07:29;27.75;;;15.98;;
54683;SDS011;40582;53.100;6.686;2022-10-13T03:09:54;29.27;;;16.02;;
54683;SDS011;40582;53.100;6.686;2022-10-13T03:12:20;29.65;;;15.90;;
54683;SDS011;40582;53.100;6.686;2022-10-13T03:14:46;26.13;;;14.68;;
54683;SDS011;40582;53.100;6.686;2022-10-13T03:17:11;38.33;;;16.13;;
54683;SDS011;40582;53.100;6.686;2022-10-13T03:19:37;30.27;;;15.90;;
54683;SDS011;40582;53.100;6.686;2022-10-13T03:22:03;35.95;;;15.65;;
54683;SDS011;40582;53.100;6.686;2022-10-13T03:24:28;27.38;;;16.45;;
54683;SDS011;40582;53.100;6.686;2022-10-13T03:26:54;30.23;;;16.80;;
54683;SDS011;40582;53.100;6.686;2022-10-13T03:29:20;28.17;;;15.57;;
54683;SDS011;40582;53.100;6.686;2022-10-13T03:31:46;31.88;;;16.15;;
54683;SDS011;40582;53.100;6.686;2022-10-13T03:34:13;38.88;;;17.35;;
54683;SDS011;40582;53.100;6.686;2022-10-13T03:36:40;32.17;;;17.17;;
54683;SDS011;40582;53.100;6.686;2022-10-13T03:39:06;32.85;;;16.73;;
54683;SDS011;40582;53.100;6.686;2022-10-13T03:41:32;40.00;;;17.98;;
54683;SDS011;40582;53.100;6.686;2022-10-13T03:43:58;41.63;;;17.15;;
54683;SDS011;40582;53.100;6.686;2022-10-13T03:46:25;32.35;;;17.48;;
54683;SDS011;40582;53.100;6.686;2022-10-13T03:48:53;32.85;;;17.35;;
54683;SDS011;40582;53.100;6.686;2022-10-13T03:51:19;35.13;;;17.80;;
54683;SDS011;40582;53.100;6.686;2022-10-13T03:53:46;36.80;;;17.50;;
54683;SDS011;40582;53.100;6.686;2022-10-13T03:56:14;26.42;;;16.35;;
54683;SDS011;40582;53.100;6.686;2022-10-13T03:58:45;33.25;;;17.10;;
54683;SDS011;40582;53.100;6.686;2022-10-13T04:01:12;41.35;;;17.73;;
54683;SDS011;40582;53.100;6.686;2022-10-13T04:03:38;28.15;;;17.55;;
54683;SDS011;40582;53.100;6.686;2022-10-13T04:06:04;38.35;;;18.52;;
54683;SDS011;40582;53.100;6.686;2022-10-13T04:08:31;35.78;;;18.50;;
54683;SDS011;40582;53.100;6.686;2022-10-13T04:11:00;30.40;;;18.50;;
54683;SDS011;40582;53.100;6.686;2022-10-13T04:13:28;32.63;;;18.77;;
54683;SDS011;40582;53.100;6.686;2022-10-13T04:15:54;39.75;;;19.70;;
54683;SDS011;40582;53.100;6.686;2022-10-13T04:18:19;38.33;;;19.30;;
54683;SDS011;40582;53.100;6.686;2022-10-13T04:20:45;35.08;;;19.15;;
54683;SDS011;40582;53.100;6.686;2022-10-13T04:23:10;34.35;;;19.55;;
54683;SDS011;40582;53.100;6.686;2022-10-13T04:25:37;36.78;;;20.17;;
54683;SDS011;40582;53.100;6.686;2022-10-13T04:28:03;43.85;;;21.55;;
54683;SDS011;40582;53.100;6.686;2022-10-13T04:30:31;36.22;;;20.60;;
54683;SDS011;40582;53.100;6.686;2022-10-13T04:32:57;36.08;;;20.92;;
54683;SDS011;40582;53.100;6.686;2022-10-13T04:35:23;36.60;;;21.42;;
54683;SDS011;40582;53.100;6.686;2022-10-13T04:37:49;34.42;;;20.20;;
54683;SDS011;40582;53.100;6.686;2022-10-13T04:40:15;34.35;;;20.65;;
54683;SDS011;40582;53.100;6.686;2022-10-13T04:42:40;37.88;;;21.08;;
54683;SDS011;40582;53.100;6.686;2022-10-13T04:45:06;34.50;;;21.10;;
54683;SDS011;40582;53.100;6.686;2022-10-13T04:47:33;38.08;;;20.50;;
54683;SDS011;40582;53.100;6.686;2022-10-13T04:50:00;39.78;;;21.35;;
54683;SDS011;40582;53.100;6.686;2022-10-13T04:52:26;36.08;;;20.60;;
54683;SDS011;40582;53.100;6.686;2022-10-13T04:54:52;38.90;;;21.20;;
54683;SDS011;40582;53.100;6.686;2022-10-13T04:57:17;42.75;;;21.58;;
54683;SDS011;40582;53.100;6.686;2022-10-13T04:59:43;38.97;;;21.33;;
54683;SDS011;40582;53.100;6.686;2022-10-13T05:02:09;44.00;;;22.42;;
54683;SDS011;40582;53.100;6.686;2022-10-13T05:04:35;39.80;;;21.75;;
54683;SDS011;40582;53.100;6.686;2022-10-13T05:07:00;40.55;;;21.33;;
54683;SDS011;40582;53.100;6.686;2022-10-13T05:09:26;41.50;;;21.63;;
54683;SDS011;40582;53.100;6.686;2022-10-13T05:11:52;40.97;;;22.30;;
54683;SDS011;40582;53.100;6.686;2022-10-13T05:14:19;39.83;;;23.58;;
54683;SDS011;40582;53.100;6.686;2022-10-13T05:16:46;42.33;;;24.17;;
54683;SDS011;40582;53.100;6.686;2022-10-13T05:19:11;48.33;;;24.45;;
54683;SDS011;40582;53.100;6.686;2022-10-13T05:21:37;41.00;;;24.73;;
54683;SDS011;40582;53.100;6.686;2022-10-13T05:24:03;47.40;;;24.60;;
54683;SDS011;40582;53.100;6.686;2022-10-13T05:26:30;44.88;;;24.63;;
54683;SDS011;40582;53.100;6.686;2022-10-13T05:29:00;48.40;;;25.83;;
54683;SDS011;40582;53.100;6.686;2022-10-13T05:31:27;43.25;;;25.42;;
54683;SDS011;40582;53.100;6.686;2022-10-13T05:33:54;41.97;;;25.80;;
54683;SDS011;40582;53.100;6.686;2022-10-13T05:36:21;45.15;;;26.80;;
54683;SDS011;40582;53.100;6.686;2022-10-13T05:38:58;51.03;;;27.95;;
54683;SDS011;40582;53.100;6.686;2022-10-13T05:41:26;45.53;;;27.50;;
54683;SDS011;40582;53.100;6.686;2022-10-13T05:43:53;50.05;;;28.02;;
54683;SDS011;40582;53.100;6.686;2022-10-13T05:46:22;49.13;;;27.45;;
54683;SDS011;40582;53.100;6.686;2022-10-13T05:48:48;49.63;;;28.33;;
54683;SDS011;40582;53.100;6.686;2022-10-13T05:51:15;51.63;;;28.33;;
54683;SDS011;40582;53.100;6.686;2022-10-13T05:53:45;55.15;;;30.48;;
54683;SDS011;40582;53.100;6.686;2022-10-13T05:56:15;45.13;;;28.00;;
54683;SDS011;40582;53.100;6.686;2022-10-13T05:58:46;46.13;;;29.23;;
54683;SDS011;40582;53.100;6.686;2022-10-13T06:01:16;55.28;;;29.70;;
54683;SDS011;40582;53.100;6.686;2022-10-13T06:03:45;54.53;;;29.80;;
54683;SDS011;40582;53.100;6.686;2022-10-13T06:06:13;54.53;;;30.80;;
54683;SDS011;40582;53.100;6.686;2022-10-13T06:08:39;58.85;;;32.67;;
54683;SDS011;40582;53.100;6.686;2022-10-13T06:11:07;61.70;;;30.27;;
54683;SDS011;40582;53.100;6.686;2022-10-13T06:13:32;51.75;;;31.10;;
54683;SDS011;40582;53.100;6.686;2022-10-13T06:15:58;52.88;;;30.05;;
54683;SDS011;40582;53.100;6.686;2022-10-13T06:18:24;54.42;;;32.10;;
54683;SDS011;40582;53.100;6.686;2022-10-13T06:20:50;64.95;;;33.35;;
54683;SDS011;40582;53.100;6.686;2022-10-13T06:23:15;55.67;;;31.25;;
54683;SDS011;40582;53.100;6.686;2022-10-13T06:25:48;58.03;;;33.10;;
54683;SDS011;40582;53.100;6.686;2022-10-13T06:28:14;70.75;;;36.45;;
54683;SDS011;40582;53.100;6.686;2022-10-13T06:30:42;60.70;;;33.50;;
54683;SDS011;40582;53.100;6.686;2022-10-13T06:33:12;61.05;;;33.92;;
54683;SDS011;40582;53.100;6.686;2022-10-13T06:35:38;62.35;;;32.97;;
54683;SDS011;40582;53.100;6.686;2022-10-13T06:38:03;55.45;;;33.53;;
54683;SDS011;40582;53.100;6.686;2022-10-13T06:40:29;57.42;;;30.27;;
54683;SDS011;40582;53.100;6.686;2022-10-13T06:42:55;60.75;;;32.40;;
54683;SDS011;40582;53.100;6.686;2022-10-13T06:45:21;61.20;;;30.92;;
54683;SDS011;40582;53.100;6.686;2022-10-13T06:47:47;60.25;;;32.47;;
54683;SDS011;40582;53.100;6.686;2022-10-13T06:50:12;50.90;;;31.55;;
54683;SDS011;40582;53.100;6.686;2022-10-13T06:52:38;46.78;;;29.02;;
54683;SDS011;40582;53.100;6.686;2022-10-13T06:55:04;60.20;;;31.95;;
54683;SDS011;40582;53.100;6.686;2022-10-13T06:57:30;56.30;;;29.20;;
54683;SDS011;40582;53.100;6.686;2022-10-13T06:59:56;50.83;;;31.60;;
54683;SDS011;40582;53.100;6.686;2022-10-13T07:02:21;54.72;;;31.48;;
54683;SDS011;40582;53.100;6.686;2022-10-13T07:04:47;54.53;;;29.85;;
54683;SDS011;40582;53.100;6.686;2022-10-13T07:07:13;55.67;;;29.70;;
54683;SDS011;40582;53.100;6.686;2022-10-13T07:09:40;54.13;;;30.33;;
54683;SDS011;40582;53.100;6.686;2022-10-13T07:12:05;52.47;;;28.20;;
54683;SDS011;40582;53.100;6.686;2022-10-13T07:14:32;47.00;;;29.30;;
54683;SDS011;40582;53.100;6.686;2022-10-13T07:16:57;56.58;;;30.83;;
54683;SDS011;40582;53.100;6.686;2022-10-13T07:19:23;49.55;;;30.00;;
54683;SDS011;40582;53.100;6.686;2022-10-13T07:21:49;46.67;;;30.40;;
54683;SDS011;40582;53.100;6.686;2022-10-13T07:24:14;52.28;;;29.50;;
54683;SDS011;40582;53.100;6.686;2022-10-13T07:26:40;48.28;;;29.05;;
54683;SDS011;40582;53.100;6.686;2022-10-13T07:29:06;52.63;;;28.83;;
54683;SDS011;40582;53.100;6.686;2022-10-13T07:31:32;48.22;;;29.02;;
54683;SDS011;40582;53.100;6.686;2022-10-13T07:33:58;48.05;;;26.58;;
54683;SDS011;40582;53.100;6.686;2022-10-13T07:36:24;50.65;;;27.27;;
54683;SDS011;40582;53.100;6.686;2022-10-13T07:38:51;45.88;;;27.60;;
54683;SDS011;40582;53.100;6.686;2022-10-13T07:41:17;54.28;;;27.20;;
54683;SDS011;40582;53.100;6.686;2022-10-13T07:43:43;47.90;;;28.15;;
54683;SDS011;40582;53.100;6.686;2022-10-13T07:46:09;49.83;;;29.00;;
54683;SDS011;40582;53.100;6.686;2022-10-13T07:48:37;42.92;;;27.13;;
54683;SDS011;40582;53.100;6.686;2022-10-13T07:51:03;51.10;;;26.45;;
54683;SDS011;40582;53.100;6.686;2022-10-13T07:53:31;46.80;;;25.83;;
54683;SDS011;40582;53.100;6.686;2022-10-13T07:55:59;37.40;;;25.75;;
54683;SDS011;40582;53.100;6.686;2022-10-13T07:58:29;51.75;;;26.65;;
54683;SDS011;40582;53.100;6.686;2022-10-13T08:00:56;43.85;;;26.65;;
54683;SDS011;40582;53.100;6.686;2022-10-13T08:03:25;47.53;;;26.73;;
54683;SDS011;40582;53.100;6.686;2022-10-13T08:05:51;42.90;;;25.52;;
54683;SDS011;40582;53.100;6.686;2022-10-13T08:08:17;42.00;;;27.02;;
54683;SDS011;40582;53.100;6.686;2022-10-13T08:10:43;44.00;;;24.92;;
54683;SDS011;40582;53.100;6.686;2022-10-13T08:13:09;41.17;;;23.92;;
54683;SDS011;40582;53.100;6.686;2022-10-13T08:15:42;45.42;;;24.13;;
54683;SDS011;40582;53.100;6.686;2022-10-13T08:18:08;42.25;;;24.25;;
54683;SDS011;40582;53.100;6.686;2022-10-13T08:20:40;42.92;;;23.92;;
54683;SDS011;40582;53.100;6.686;2022-10-13T08:23:06;40.08;;;24.27;;
54683;SDS011;40582;53.100;6.686;2022-10-13T08:25:39;41.70;;;24.75;;
54683;SDS011;40582;53.100;6.686;2022-10-13T08:28:06;41.85;;;24.58;;
54683;SDS011;40582;53.100;6.686;2022-10-13T08:30:39;44.67;;;26.38;;
54683;SDS011;40582;53.100;6.686;2022-10-13T08:33:05;44.80;;;23.98;;
54683;SDS011;40582;53.100;6.686;2022-10-13T08:35:30;52.65;;;26.33;;
54683;SDS011;40582;53.100;6.686;2022-10-13T08:37:56;49.90;;;26.60;;
54683;SDS011;40582;53.100;6.686;2022-10-13T08:40:22;43.70;;;25.10;;
54683;SDS011;40582;53.100;6.686;2022-10-13T08:42:48;47.72;;;26.13;;
54683;SDS011;40582;53.100;6.686;2022-10-13T08:45:17;43.03;;;24.90;;
54683;SDS011;40582;53.100;6.686;2022-10-13T08:50:22;44.43;;;26.37;;
54683;SDS011;40582;53.100;6.686;2022-10-13T08:58:05;43.28;;;25.15;;
54683;SDS011;40582;53.100;6.686;2022-10-13T09:00:36;43.40;;;26.92;;
54683;SDS011;40582;53.100;6.686;2022-10-13T09:03:22;45.22;;;26.98;;
54683;SDS011;40582;53.100;6.686;2022-10-13T09:08:52;38.92;;;25.80;;
54683;SDS011;40582;53.100;6.686;2022-10-13T09:11:24;49.72;;;27.52;;
54683;SDS011;40582;53.100;6.686;2022-10-13T09:13:55;47.65;;;28.83;;
54683;SDS011;40582;53.100;6.686;2022-10-13T09:16:33;51.60;;;27.98;;
54683;SDS011;40582;53.100;6.686;2022-10-13T09:21:45;52.88;;;28.65;;
54683;SDS011;40582;53.100;6.686;2022-10-13T09:24:16;47.35;;;30.20;;
54683;SDS011;40582;53.100;6.686;2022-10-13T09:26:45;46.88;;;28.48;;
54683;SDS011;40582;53.100;6.686;2022-10-13T09:29:16;51.10;;;30.58;;
54683;SDS011;40582;53.100;6.686;2022-10-13T09:31:44;49.28;;;29.70;;
54683;SDS011;40582;53.100;6.686;2022-10-13T09:34:14;58.70;;;32.10;;
54683;SDS011;40582;53.100;6.686;2022-10-13T09:37:22;45.60;;;29.17;;
54683;SDS011;40582;53.100;6.686;2022-10-13T09:39:42;52.03;;;32.20;;
54683;SDS011;40582;53.100;6.686;2022-10-13T09:42:19;45.35;;;29.50;;
54683;SDS011;40582;53.100;6.686;2022-10-13T09:44:55;46.22;;;27.17;;
54683;SDS011;40582;53.100;6.686;2022-10-13T09:47:23;55.05;;;31.70;;
54683;SDS011;40582;53.100;6.686;2022-10-13T09:49:59;49.63;;;29.60;;
54683;SDS011;40582;53.100;6.686;2022-10-13T09:52:46;48.17;;;28.25;;
54683;SDS011;40582;53.100;6.686;2022-10-13T09:55:29;43.15;;;26.80;;
54683;SDS011;40582;53.100;6.686;2022-10-13T09:57:59;44.70;;;28.08;;
54683;SDS011;40582;53.100;6.686;2022-10-13T10:00:29;47.65;;;29.27;;
54683;SDS011;40582;53.100;6.686;2022-10-13T10:03:01;38.10;;;26.48;;
54683;SDS011;40582;53.100;6.686;2022-10-13T10:08:21;43.78;;;26.63;;
54683;SDS011;40582;53.100;6.686;2022-10-13T10:10:48;45.25;;;26.20;;
54683;SDS011;40582;53.100;6.686;2022-10-13T10:13:14;49.47;;;30.15;;
54683;SDS011;40582;53.100;6.686;2022-10-13T10:15:53;36.00;;;26.75;;
54683;SDS011;40582;53.100;6.686;2022-10-13T10:21:09;39.22;;;24.67;;
54683;SDS011;40582;53.100;6.686;2022-10-13T10:23:46;36.22;;;23.40;;
54683;SDS011;40582;53.100;6.686;2022-10-13T10:26:19;40.38;;;26.30;;
54683;SDS011;40582;53.100;6.686;2022-10-13T10:35:12;33.90;;;24.20;;
54683;SDS011;40582;53.100;6.686;2022-10-13T10:44:57;35.55;;;23.80;;
54683;SDS011;40582;53.100;6.686;2022-10-13T10:47:35;38.83;;;25.88;;
54683;SDS011;40582;53.100;6.686;2022-10-13T10:50:05;35.35;;;23.88;;
54683;SDS011;40582;53.100;6.686;2022-10-13T10:52:39;31.70;;;22.95;;
54683;SDS011;40582;53.100;6.686;2022-10-13T10:55:30;35.78;;;25.50;;
54683;SDS011;40582;53.100;6.686;2022-10-13T10:58:16;34.70;;;24.55;;
54683;SDS011;40582;53.100;6.686;2022-10-13T11:03:44;33.78;;;25.17;;
54683;SDS011;40582;53.100;6.686;2022-10-13T11:06:23;36.97;;;25.73;;
54683;SDS011;40582;53.100;6.686;2022-10-13T11:08:56;39.28;;;27.48;;
54683;SDS011;40582;53.100;6.686;2022-10-13T11:16:34;42.63;;;28.00;;
54683;SDS011;40582;53.100;6.686;2022-10-13T11:35:36;41.85;;;29.48;;
54683;SDS011;40582;53.100;6.686;2022-10-13T11:46:10;39.33;;;28.67;;
54683;SDS011;40582;53.100;6.686;2022-10-13T11:54:34;49.88;;;31.55;;
54683;SDS011;40582;53.100;6.686;2022-10-13T11:57:26;52.65;;;31.70;;
54683;SDS011;40582;53.100;6.686;2022-10-13T11:59:55;49.47;;;31.85;;
54683;SDS011;40582;53.100;6.686;2022-10-13T12:02:22;44.35;;;29.60;;
54683;SDS011;40582;53.100;6.686;2022-10-13T12:07:42;43.72;;;30.45;;
54683;SDS011;40582;53.100;6.686;2022-10-13T12:10:19;46.85;;;29.25;;
54683;SDS011;40582;53.100;6.686;2022-10-13T12:12:52;47.53;;;31.40;;
54683;SDS011;40582;53.100;6.686;2022-10-13T12:15:25;43.08;;;30.08;;
54683;SDS011;40582;53.100;6.686;2022-10-13T12:17:52;43.30;;;27.93;;
54683;SDS011;40582;53.100;6.686;2022-10-13T12:20:22;43.17;;;29.58;;
54683;SDS011;40582;53.100;6.686;2022-10-13T12:22:50;41.65;;;28.67;;
54683;SDS011;40582;53.100;6.686;2022-10-13T12:25:20;43.53;;;30.20;;
54683;SDS011;40582;53.100;6.686;2022-10-13T12:27:50;42.53;;;29.95;;
54683;SDS011;40582;53.100;6.686;2022-10-13T12:33:00;40.78;;;30.65;;
54683;SDS011;40582;53.100;6.686;2022-10-13T12:35:28;42.08;;;29.10;;
54683;SDS011;40582;53.100;6.686;2022-10-13T12:37:57;38.65;;;26.55;;
54683;SDS011;40582;53.100;6.686;2022-10-13T12:40:26;40.35;;;27.52;;
54683;SDS011;40582;53.100;6.686;2022-10-13T12:42:53;41.35;;;26.85;;
54683;SDS011;40582;53.100;6.686;2022-10-13T12:45:20;42.38;;;29.58;;
54683;SDS011;40582;53.100;6.686;2022-10-13T12:47:51;41.35;;;29.23;;
54683;SDS011;40582;53.100;6.686;2022-10-13T12:50:19;40.42;;;27.75;;
54683;SDS011;40582;53.100;6.686;2022-10-13T12:55:52;40.92;;;28.23;;
54683;SDS011;40582;53.100;6.686;2022-10-13T12:58:32;43.72;;;30.00;;
54683;SDS011;40582;53.100;6.686;2022-10-13T13:03:38;48.83;;;29.75;;
54683;SDS011;40582;53.100;6.686;2022-10-13T13:08:40;46.67;;;31.07;;
54683;SDS011;40582;53.100;6.686;2022-10-13T13:11:23;43.28;;;30.52;;
54683;SDS011;40582;53.100;6.686;2022-10-13T13:17:05;42.55;;;29.88;;
54683;SDS011;40582;53.100;6.686;2022-10-13T13:19:39;44.17;;;28.92;;
54683;SDS011;40582;53.100;6.686;2022-10-13T13:22:06;42.58;;;29.05;;
54683;SDS011;40582;53.100;6.686;2022-10-13T13:24:32;46.72;;;31.08;;
54683;SDS011;40582;53.100;6.686;2022-10-13T13:26:58;40.30;;;29.65;;
54683;SDS011;40582;53.100;6.686;2022-10-13T13:29:25;52.20;;;31.35;;
54683;SDS011;40582;53.100;6.686;2022-10-13T13:31:51;42.17;;;30.88;;
54683;SDS011;40582;53.100;6.686;2022-10-13T13:34:17;52.00;;;32.92;;
54683;SDS011;40582;53.100;6.686;2022-10-13T13:36:42;42.75;;;30.58;;
54683;SDS011;40582;53.100;6.686;2022-10-13T13:39:14;48.78;;;30.63;;
54683;SDS011;40582;53.100;6.686;2022-10-13T13:41:42;46.97;;;33.05;;
54683;SDS011;40582;53.100;6.686;2022-10-13T13:44:08;41.35;;;29.27;;
54683;SDS011;40582;53.100;6.686;2022-10-13T13:46:33;48.33;;;30.45;;
54683;SDS011;40582;53.100;6.686;2022-10-13T13:49:00;50.40;;;34.65;;
54683;SDS011;40582;53.100;6.686;2022-10-13T13:51:26;46.88;;;31.83;;
54683;SDS011;40582;53.100;6.686;2022-10-13T13:53:52;46.25;;;32.33;;
54683;SDS011;40582;53.100;6.686;2022-10-13T13:56:18;46.38;;;32.40;;
54683;SDS011;40582;53.100;6.686;2022-10-13T13:58:45;41.58;;;29.02;;
54683;SDS011;40582;53.100;6.686;2022-10-13T14:01:11;42.28;;;29.23;;
54683;SDS011;40582;53.100;6.686;2022-10-13T14:03:38;47.63;;;29.08;;
54683;SDS011;40582;53.100;6.686;2022-10-13T14:06:04;45.42;;;30.50;;
54683;SDS011;40582;53.100;6.686;2022-10-13T14:08:33;37.90;;;27.10;;
54683;SDS011;40582;53.100;6.686;2022-10-13T14:11:05;40.03;;;26.38;;
54683;SDS011;40582;53.100;6.686;2022-10-13T14:13:32;34.60;;;27.35;;
54683;SDS011;40582;53.100;6.686;2022-10-13T14:15:58;43.95;;;28.05;;
54683;SDS011;40582;53.100;6.686;2022-10-13T14:18:25;33.97;;;25.88;;
54683;SDS011;40582;53.100;6.686;2022-10-13T14:20:51;37.20;;;26.35;;
54683;SDS011;40582;53.100;6.686;2022-10-13T14:23:16;40.65;;;26.92;;
54683;SDS011;40582;53.100;6.686;2022-10-13T14:25:43;42.15;;;28.00;;
54683;SDS011;40582;53.100;6.686;2022-10-13T14:28:08;37.10;;;27.33;;
54683;SDS011;40582;53.100;6.686;2022-10-13T14:30:37;34.38;;;25.65;;
54683;SDS011;40582;53.100;6.686;2022-10-13T14:33:03;37.55;;;26.45;;
54683;SDS011;40582;53.100;6.686;2022-10-13T14:35:29;36.25;;;25.17;;
54683;SDS011;40582;53.100;6.686;2022-10-13T14:37:55;36.85;;;24.83;;
54683;SDS011;40582;53.100;6.686;2022-10-13T14:40:21;42.40;;;25.75;;
54683;SDS011;40582;53.100;6.686;2022-10-13T14:42:47;47.60;;;30.27;;
54683;SDS011;40582;53.100;6.686;2022-10-13T14:45:12;44.72;;;30.73;;
54683;SDS011;40582;53.100;6.686;2022-10-13T14:47:39;37.63;;;25.80;;
54683;SDS011;40582;53.100;6.686;2022-10-13T14:50:05;37.28;;;27.60;;
54683;SDS011;40582;53.100;6.686;2022-10-13T14:52:31;37.83;;;28.50;;
54683;SDS011;40582;53.100;6.686;2022-10-13T14:54:57;43.17;;;28.08;;
54683;SDS011;40582;53.100;6.686;2022-10-13T14:57:23;42.30;;;28.10;;
54683;SDS011;40582;53.100;6.686;2022-10-13T14:59:49;39.63;;;28.95;;
54683;SDS011;40582;53.100;6.686;2022-10-13T15:02:14;41.90;;;28.15;;
54683;SDS011;40582;53.100;6.686;2022-10-13T15:04:40;40.92;;;28.10;;
54683;SDS011;40582;53.100;6.686;2022-10-13T15:07:06;38.88;;;27.05;;
54683;SDS011;40582;53.100;6.686;2022-10-13T15:09:32;40.45;;;26.10;;
54683;SDS011;40582;53.100;6.686;2022-10-13T15:11:57;41.53;;;27.88;;
54683;SDS011;40582;53.100;6.686;2022-10-13T15:14:23;43.50;;;29.13;;
54683;SDS011;40582;53.100;6.686;2022-10-13T15:16:49;43.05;;;30.85;;
54683;SDS011;40582;53.100;6.686;2022-10-13T15:19:15;45.20;;;31.73;;
54683;SDS011;40582;53.100;6.686;2022-10-13T15:21:40;51.35;;;34.67;;
54683;SDS011;40582;53.100;6.686;2022-10-13T15:24:06;50.75;;;32.40;;
54683;SDS011;40582;53.100;6.686;2022-10-13T15:26:33;41.47;;;29.23;;
54683;SDS011;40582;53.100;6.686;2022-10-13T15:29:00;45.17;;;31.05;;
54683;SDS011;40582;53.100;6.686;2022-10-13T15:31:27;38.60;;;27.80;;
54683;SDS011;40582;53.100;6.686;2022-10-13T15:33:54;37.97;;;27.40;;
54683;SDS011;40582;53.100;6.686;2022-10-13T15:36:20;35.58;;;27.05;;
54683;SDS011;40582;53.100;6.686;2022-10-13T15:38:47;35.58;;;27.25;;
54683;SDS011;40582;53.100;6.686;2022-10-13T15:41:13;39.05;;;26.77;;
54683;SDS011;40582;53.100;6.686;2022-10-13T15:43:39;36.92;;;25.67;;
54683;SDS011;40582;53.100;6.686;2022-10-13T15:46:06;37.88;;;25.33;;
54683;SDS011;40582;53.100;6.686;2022-10-13T15:48:35;35.33;;;24.02;;
54683;SDS011;40582;53.100;6.686;2022-10-13T15:51:02;35.05;;;27.38;;
54683;SDS011;40582;53.100;6.686;2022-10-13T15:53:36;34.25;;;25.60;;
54683;SDS011;40582;53.100;6.686;2022-10-13T15:56:02;36.65;;;25.83;;
54683;SDS011;40582;53.100;6.686;2022-10-13T15:58:27;37.92;;;27.42;;
54683;SDS011;40582;53.100;6.686;2022-10-13T16:00:53;37.45;;;24.52;;
54683;SDS011;40582;53.100;6.686;2022-10-13T16:03:18;35.53;;;25.45;;
54683;SDS011;40582;53.100;6.686;2022-10-13T16:05:45;39.97;;;25.35;;
54683;SDS011;40582;53.100;6.686;2022-10-13T16:08:11;38.17;;;24.70;;
54683;SDS011;40582;53.100;6.686;2022-10-13T16:10:38;39.17;;;24.35;;